sensor_id;sensor_type;location;lat;lon;timestamp;temperature;humidity
21883;DHT22;11106;47.864;13.054;2023-09-19T00:02:39;16.80;99.90
21883;DHT22;11106;47.864;13.054;2023-09-19T00:07:39;16.10;99.90
21883;DHT22;11106;47.864;13.054;2023-09-19T00:12:42;16.00;99.90
21883;DHT22;11106;47.864;13.054;2023-09-19T00:17:43;15.90;99.90
21883;DHT22;11106;47.864;13.054;2023-09-19T00:22:44;16.00;99.90
21883;DHT22;11106;47.864;13.054;2023-09-19T00:27:44;15.90;99.90
21883;DHT22;11106;47.864;13.054;2023-09-19T00:32:46;15.90;99.90
21883;DHT22;11106;47.864;13.054;2023-09-19T00:37:47;15.90;99.90
21883;DHT22;11106;47.864;13.054;2023-09-19T00:42:48;15.90;99.90
21883;DHT22;11106;47.864;13.054;2023-09-19T00:47:50;15.90;99.90
21883;DHT22;11106;47.864;13.054;2023-09-19T00:52:53;15.90;99.90
21883;DHT22;11106;47.864;13.054;2023-09-19T00:57:56;15.90;99.90
21883;DHT22;11106;47.864;13.054;2023-09-19T01:02:57;15.90;99.90
21883;DHT22;11106;47.864;13.054;2023-09-19T01:07:57;15.90;99.90
21883;DHT22;11106;47.864;13.054;2023-09-19T02:58:28;15.90;99.90
21883;DHT22;11106;47.864;13.054;2023-09-19T03:03:30;15.90;99.90
21883;DHT22;11106;47.864;13.054;2023-09-19T03:08:31;15.90;99.90
21883;DHT22;11106;47.864;13.054;2023-09-19T03:13:36;15.90;99.90
21883;DHT22;11106;47.864;13.054;2023-09-19T03:18:38;15.90;99.90
21883;DHT22;11106;47.864;13.054;2023-09-19T03:23:38;15.90;99.90
21883;DHT22;11106;47.864;13.054;2023-09-19T03:28:39;15.90;99.90
21883;DHT22;11106;47.864;13.054;2023-09-19T03:33:39;16.00;99.90
21883;DHT22;11106;47.864;13.054;2023-09-19T03:38:40;16.00;99.90
21883;DHT22;11106;47.864;13.054;2023-09-19T03:43:41;16.00;99.90
21883;DHT22;11106;47.864;13.054;2023-09-19T03:48:41;16.10;99.90
21883;DHT22;11106;47.864;13.054;2023-09-19T03:53:43;16.10;99.90
21883;DHT22;11106;47.864;13.054;2023-09-19T03:58:43;16.10;99.90
21883;DHT22;11106;47.864;13.054;2023-09-19T04:03:44;16.10;99.90
21883;DHT22;11106;47.864;13.054;2023-09-19T04:08:48;16.10;99.90
21883;DHT22;11106;47.864;13.054;2023-09-19T04:13:49;16.00;99.90
21883;DHT22;11106;47.864;13.054;2023-09-19T04:18:49;16.00;99.90
21883;DHT22;11106;47.864;13.054;2023-09-19T04:23:50;16.00;99.90
21883;DHT22;11106;47.864;13.054;2023-09-19T04:28:50;16.00;99.90
21883;DHT22;11106;47.864;13.054;2023-09-19T04:33:51;16.00;99.90
21883;DHT22;11106;47.864;13.054;2023-09-19T10:43:17;16.00;99.90
21883;DHT22;11106;47.864;13.054;2023-09-19T10:48:21;22.10;99.90
21883;DHT22;11106;47.864;13.054;2023-09-19T10:53:29;22.10;99.90
21883;DHT22;11106;47.864;13.054;2023-09-19T10:58:32;22.60;99.90
21883;DHT22;11106;47.864;13.054;2023-09-19T13:11:11;22.80;99.90
21883;DHT22;11106;47.864;13.054;2023-09-19T13:16:16;22.90;99.90
21883;DHT22;11106;47.864;13.054;2023-09-19T13:21:33;22.80;99.90
21883;DHT22;11106;47.864;13.054;2023-09-19T13:26:39;22.80;99.90
21883;DHT22;11106;47.864;13.054;2023-09-19T13:31:39;22.80;99.90
21883;DHT22;11106;47.864;13.054;2023-09-19T13:36:42;22.90;99.90
21883;DHT22;11106;47.864;13.054;2023-09-19T13:41:47;22.80;99.90
21883;DHT22;11106;47.864;13.054;2023-09-19T13:46:48;22.70;99.90
21883;DHT22;11106;47.864;13.054;2023-09-19T13:51:48;22.80;99.90
21883;DHT22;11106;47.864;13.054;2023-09-19T13:56:49;22.70;99.90
21883;DHT22;11106;47.864;13.054;2023-09-19T14:01:50;22.70;99.90
21883;DHT22;11106;47.864;13.054;2023-09-19T14:06:51;22.70;99.90
21883;DHT22;11106;47.864;13.054;2023-09-19T14:11:51;22.70;99.70
21883;DHT22;11106;47.864;13.054;2023-09-19T14:16:53;22.70;99.90
21883;DHT22;11106;47.864;13.054;2023-09-19T14:21:53;22.60;98.70
21883;DHT22;11106;47.864;13.054;2023-09-19T14:26:57;22.70;99.50
21883;DHT22;11106;47.864;13.054;2023-09-19T14:31:58;22.80;99.90
21883;DHT22;11106;47.864;13.054;2023-09-19T14:36:59;22.90;99.90
21883;DHT22;11106;47.864;13.054;2023-09-19T14:41:59;22.90;99.90
21883;DHT22;11106;47.864;13.054;2023-09-19T14:47:00;22.90;99.90
21883;DHT22;11106;47.864;13.054;2023-09-19T14:52:01;23.00;99.90
21883;DHT22;11106;47.864;13.054;2023-09-19T14:57:04;22.90;99.90
21883;DHT22;11106;47.864;13.054;2023-09-19T15:02:05;22.80;99.90
21883;DHT22;11106;47.864;13.054;2023-09-19T15:07:06;22.70;99.90
21883;DHT22;11106;47.864;13.054;2023-09-19T15:12:06;22.80;99.90
21883;DHT22;11106;47.864;13.054;2023-09-19T15:17:07;22.70;99.90
21883;DHT22;11106;47.864;13.054;2023-09-19T15:22:08;22.70;99.90
21883;DHT22;11106;47.864;13.054;2023-09-19T15:27:09;22.70;99.90
21883;DHT22;11106;47.864;13.054;2023-09-19T15:32:10;22.60;99.90
21883;DHT22;11106;47.864;13.054;2023-09-19T15:37:10;22.60;99.90
21883;DHT22;11106;47.864;13.054;2023-09-19T15:42:11;22.60;99.90
21883;DHT22;11106;47.864;13.054;2023-09-19T15:47:12;22.50;99.90
21883;DHT22;11106;47.864;13.054;2023-09-19T15:52:13;22.60;99.90
21883;DHT22;11106;47.864;13.054;2023-09-19T15:57:15;22.60;99.90
21883;DHT22;11106;47.864;13.054;2023-09-19T16:02:16;22.40;99.90
21883;DHT22;11106;47.864;13.054;2023-09-19T16:07:17;22.40;99.90
21883;DHT22;11106;47.864;13.054;2023-09-19T16:12:19;22.30;99.90
21883;DHT22;11106;47.864;13.054;2023-09-19T16:17:19;22.10;99.90
21883;DHT22;11106;47.864;13.054;2023-09-19T16:22:20;22.00;99.90
21883;DHT22;11106;47.864;13.054;2023-09-19T16:27:21;21.80;99.90
21883;DHT22;11106;47.864;13.054;2023-09-19T16:32:21;21.60;99.90
21883;DHT22;11106;47.864;13.054;2023-09-19T16:37:22;21.50;99.90
21883;DHT22;11106;47.864;13.054;2023-09-19T16:42:23;21.20;99.90
21883;DHT22;11106;47.864;13.054;2023-09-19T16:47:24;21.10;99.90
21883;DHT22;11106;47.864;13.054;2023-09-19T16:52:25;20.90;99.90
21883;DHT22;11106;47.864;13.054;2023-09-19T16:57:26;20.80;99.90
21883;DHT22;11106;47.864;13.054;2023-09-19T17:02:27;20.50;99.90
21883;DHT22;11106;47.864;13.054;2023-09-19T17:07:28;20.30;99.90
21883;DHT22;11106;47.864;13.054;2023-09-19T17:12:29;20.10;99.90
21883;DHT22;11106;47.864;13.054;2023-09-19T17:17:30;19.90;99.90
21883;DHT22;11106;47.864;13.054;2023-09-19T17:22:31;19.70;99.90
21883;DHT22;11106;47.864;13.054;2023-09-19T17:27:32;19.50;99.90
21883;DHT22;11106;47.864;13.054;2023-09-19T17:32:34;19.40;99.90
21883;DHT22;11106;47.864;13.054;2023-09-19T17:37:35;19.30;99.90
21883;DHT22;11106;47.864;13.054;2023-09-19T17:42:41;19.10;99.90
21883;DHT22;11106;47.864;13.054;2023-09-19T17:47:43;18.90;99.90
21883;DHT22;11106;47.864;13.054;2023-09-19T17:52:44;18.70;99.90
21883;DHT22;11106;47.864;13.054;2023-09-19T17:57:45;18.60;99.90
21883;DHT22;11106;47.864;13.054;2023-09-19T18:02:48;18.40;99.90
21883;DHT22;11106;47.864;13.054;2023-09-19T18:07:49;18.20;99.90
21883;DHT22;11106;47.864;13.054;2023-09-19T18:12:49;18.10;99.90
21883;DHT22;11106;47.864;13.054;2023-09-19T18:17:51;18.00;99.90
21883;DHT22;11106;47.864;13.054;2023-09-19T18:22:53;17.90;99.90
21883;DHT22;11106;47.864;13.054;2023-09-19T18:27:54;17.80;99.90
21883;DHT22;11106;47.864;13.054;2023-09-19T18:32:55;17.70;99.90
21883;DHT22;11106;47.864;13.054;2023-09-19T18:37:55;17.60;99.90
21883;DHT22;11106;47.864;13.054;2023-09-19T18:42:56;17.50;99.90
21883;DHT22;11106;47.864;13.054;2023-09-19T18:47:57;17.40;99.90
21883;DHT22;11106;47.864;13.054;2023-09-19T18:52:59;17.30;99.90
21883;DHT22;11106;47.864;13.054;2023-09-19T18:58:00;17.20;99.90
21883;DHT22;11106;47.864;13.054;2023-09-19T19:03:01;17.00;99.90
21883;DHT22;11106;47.864;13.054;2023-09-19T19:08:01;16.90;99.90
21883;DHT22;11106;47.864;13.054;2023-09-19T19:13:02;16.80;99.90
21883;DHT22;11106;47.864;13.054;2023-09-19T19:18:03;16.70;99.90
21883;DHT22;11106;47.864;13.054;2023-09-19T19:23:05;16.70;99.90
21883;DHT22;11106;47.864;13.054;2023-09-19T19:28:07;16.50;99.90
21883;DHT22;11106;47.864;13.054;2023-09-19T19:33:08;16.50;99.90
21883;DHT22;11106;47.864;13.054;2023-09-19T19:38:10;16.30;99.90
21883;DHT22;11106;47.864;13.054;2023-09-19T19:43:11;16.30;99.90
21883;DHT22;11106;47.864;13.054;2023-09-19T19:48:12;16.20;99.90
21883;DHT22;11106;47.864;13.054;2023-09-19T19:53:12;16.20;99.90
21883;DHT22;11106;47.864;13.054;2023-09-19T19:58:13;16.10;99.90
21883;DHT22;11106;47.864;13.054;2023-09-19T20:03:16;16.00;99.90
21883;DHT22;11106;47.864;13.054;2023-09-19T20:08:17;15.90;99.90
21883;DHT22;11106;47.864;13.054;2023-09-19T20:13:18;15.80;99.90
21883;DHT22;11106;47.864;13.054;2023-09-19T20:18:18;15.80;99.90
21883;DHT22;11106;47.864;13.054;2023-09-19T20:23:19;15.70;99.90
21883;DHT22;11106;47.864;13.054;2023-09-19T20:28:20;15.60;99.90
21883;DHT22;11106;47.864;13.054;2023-09-19T20:33:22;15.50;99.90
21883;DHT22;11106;47.864;13.054;2023-09-19T20:38:23;15.50;99.90
21883;DHT22;11106;47.864;13.054;2023-09-19T20:43:24;15.40;99.90
